createdAt,value
2022-08-22T00:01:32.335Z,4.68
2022-08-22T00:03:03.075Z,2.63
2022-08-22T00:03:07.175Z,5.80
2022-08-22T00:03:08.440Z,2.88
2022-08-22T00:03:15.293Z,3.35
2022-08-22T00:03:15.976Z,3.55
2022-08-22T00:04:23.898Z,4.55
2022-08-22T00:07:02.673Z,3.53
2022-08-22T00:09:53.201Z,6.57
2022-08-22T00:12:50.636Z,6.00
2022-08-22T00:15:42.650Z,4.93
2022-08-22T00:18:15.191Z,3.83
2022-08-22T00:20:49.452Z,4.35
2022-08-22T00:23:27.719Z,3.45
2022-08-22T00:26:09.551Z,4.65
2022-08-22T00:28:38.674Z,4.07
2022-08-22T00:31:17.595Z,2.97
2022-08-22T00:34:04.565Z,3.63
2022-08-22T00:36:37.426Z,4.03
2022-08-22T00:39:16.602Z,3.47
2022-08-22T00:41:55.243Z,3.50
2022-08-22T00:44:40.394Z,5.50
2022-08-22T00:47:15.738Z,4.55
2022-08-22T00:49:56.029Z,4.70
2022-08-22T00:52:44.457Z,4.20
2022-08-22T00:55:20.708Z,5.25
2022-08-22T00:58:05.970Z,3.42
2022-08-22T01:00:40.843Z,4.47
2022-08-22T01:03:38.409Z,5.82
2022-08-22T01:06:45.327Z,6.22
2022-08-22T01:09:21.249Z,5.55
2022-08-22T01:12:09.592Z,3.45
2022-08-22T01:14:44.353Z,3.70
2022-08-22T01:17:54.486Z,4.93
2022-08-22T01:20:37.166Z,4.05
2022-08-22T01:23:25.658Z,4.65
2022-08-22T01:26:07.490Z,3.00
2022-08-22T01:29:16.084Z,4.30
2022-08-22T01:32:20.997Z,12.43
2022-08-22T01:35:03.981Z,9.68
2022-08-22T01:37:54.601Z,4.60
2022-08-22T01:40:27.243Z,4.90
2022-08-22T01:42:53.995Z,6.25
2022-08-22T01:45:41.938Z,9.85
2022-08-22T01:48:40.541Z,4.20
2022-08-22T01:51:37.133Z,4.63
2022-08-22T01:54:13.060Z,8.75
2022-08-22T01:56:45.821Z,3.95
2022-08-22T01:59:33.754Z,4.60
2022-08-22T02:04:55.861Z,5.82
2022-08-22T02:07:32.472Z,5.43
2022-08-22T02:10:48.282Z,5.53
2022-08-22T02:13:14.975Z,4.80
2022-08-22T02:15:41.690Z,4.50
2022-08-22T02:18:20.975Z,4.63
2022-08-22T02:20:47.662Z,3.90
2022-08-22T02:23:35.578Z,5.78
2022-08-22T02:26:02.320Z,6.60
2022-08-22T02:28:57.995Z,5.43
2022-08-22T02:31:42.438Z,5.75
2022-08-22T02:34:35.521Z,4.85
2022-08-22T02:37:21.907Z,9.13
2022-08-22T02:39:57.140Z,4.65
2022-08-22T02:42:33.824Z,6.45
2022-08-22T02:45:15.550Z,5.13
2022-08-22T02:48:06.536Z,4.40
2022-08-22T02:50:43.209Z,5.00
2022-08-22T02:53:32.383Z,6.70
2022-08-22T02:56:11.553Z,8.98
2022-08-22T02:59:00.036Z,5.28
2022-08-22T03:01:29.964Z,5.13
2022-08-22T03:04:26.876Z,6.60
2022-08-22T03:07:11.883Z,7.90
2022-08-22T03:10:01.689Z,7.00
2022-08-22T03:12:40.288Z,14.40
2022-08-22T03:15:18.571Z,9.85
2022-08-22T03:17:57.182Z,6.00
2022-08-22T03:20:54.752Z,5.97
2022-08-22T03:23:36.381Z,5.93
2022-08-22T03:26:44.993Z,6.90
2022-08-22T03:29:19.489Z,7.67
2022-08-22T03:32:12.839Z,8.50
2022-08-22T03:35:05.714Z,10.32
2022-08-22T03:37:41.161Z,11.50
2022-08-22T03:40:21.749Z,9.68
2022-08-22T03:43:20.791Z,13.60
2022-08-22T03:46:22.944Z,7.13
2022-08-22T03:49:23.442Z,12.15
2022-08-22T03:52:27.404Z,12.05
2022-08-22T03:55:19.108Z,18.27
2022-08-22T03:58:19.168Z,9.52
2022-08-22T04:01:11.525Z,10.02
2022-08-22T04:03:59.463Z,13.38
2022-08-22T04:07:28.440Z,15.10
2022-08-22T04:10:20.040Z,10.82
2022-08-22T04:12:59.219Z,9.00
2022-08-22T04:16:04.226Z,9.82
2022-08-22T04:18:45.414Z,9.60
2022-08-22T04:21:33.055Z,8.65
2022-08-22T04:24:30.106Z,9.73
2022-08-22T04:26:56.899Z,11.77
2022-08-22T04:29:42.939Z,8.05
2022-08-22T04:32:17.326Z,8.80
2022-08-22T04:34:59.277Z,11.80
2022-08-22T04:37:29.083Z,9.52
2022-08-22T04:40:17.124Z,9.82
2022-08-22T04:42:53.216Z,8.73
2022-08-22T04:45:25.577Z,9.90
2022-08-22T04:47:57.488Z,9.13
2022-08-22T04:50:33.317Z,7.93
2022-08-22T04:53:13.947Z,12.07
2022-08-22T04:56:31.733Z,8.75
2022-08-22T04:59:04.665Z,8.45
2022-08-22T05:01:55.068Z,12.63
2022-08-22T05:04:31.506Z,12.30
2022-08-22T05:07:18.257Z,9.57
2022-08-22T05:09:49.501Z,8.45
2022-08-22T05:12:23.121Z,8.93
2022-08-22T05:14:59.628Z,8.57
2022-08-22T05:17:32.200Z,9.55
2022-08-22T05:20:07.978Z,12.02
2022-08-22T05:22:40.358Z,9.00
2022-08-22T05:25:11.426Z,11.15
2022-08-22T05:27:49.980Z,11.20
2022-08-22T05:30:27.058Z,11.77
2022-08-22T05:33:05.648Z,10.45
2022-08-22T05:35:39.925Z,9.80
2022-08-22T05:38:12.471Z,7.88
2022-08-22T05:40:40.906Z,9.60
2022-08-22T05:43:11.341Z,12.95
2022-08-22T05:45:40.637Z,12.38
2022-08-22T05:48:20.428Z,12.05
2022-08-22T05:50:56.734Z,12.55
2022-08-22T05:53:32.126Z,11.13
2022-08-22T05:56:03.415Z,7.45
2022-08-22T05:58:39.117Z,8.93
2022-08-22T06:01:24.206Z,12.35
2022-08-22T06:04:11.842Z,8.65
2022-08-22T06:06:48.957Z,8.43
2022-08-22T06:09:25.748Z,7.72
2022-08-22T06:12:08.429Z,8.07
2022-08-22T06:14:52.897Z,7.38
2022-08-22T06:17:29.016Z,7.90
2022-08-22T06:19:56.082Z,8.98
2022-08-22T06:24:58.992Z,9.60
2022-08-22T06:27:31.389Z,12.68
2022-08-22T06:30:03.305Z,10.82
2022-08-22T06:32:59.290Z,9.63
2022-08-22T06:35:56.839Z,9.20
2022-08-22T06:38:29.666Z,10.18
2022-08-22T06:41:00.578Z,8.43
2022-08-22T06:43:38.696Z,8.80
2022-08-22T06:46:07.538Z,11.60
2022-08-22T06:48:36.323Z,14.70
2022-08-22T06:51:07.223Z,13.73
2022-08-22T06:53:48.265Z,11.55
2022-08-22T06:56:25.618Z,12.50
2022-08-22T06:58:56.566Z,13.15
2022-08-22T07:01:27.249Z,15.35
2022-08-22T07:03:59.022Z,8.55
2022-08-22T07:06:37.137Z,12.63
2022-08-22T07:09:07.039Z,15.05
2022-08-22T07:11:39.733Z,11.45
2022-08-22T07:14:12.772Z,17.98
2022-08-22T07:16:44.387Z,19.13
2022-08-22T07:19:25.838Z,10.63
2022-08-22T07:21:53.391Z,8.57
2022-08-22T07:24:31.902Z,11.55
2022-08-22T07:27:08.921Z,9.48
2022-08-22T07:29:44.957Z,11.32
2022-08-22T07:32:16.268Z,7.95
2022-08-22T07:35:07.825Z,9.50
2022-08-22T07:37:53.722Z,11.77
2022-08-22T07:40:53.756Z,7.68
2022-08-22T07:43:30.123Z,9.65
2022-08-22T07:46:14.382Z,9.18
2022-08-22T07:49:07.673Z,8.40
2022-08-22T07:51:50.683Z,8.02
2022-08-22T07:55:01.240Z,10.40
2022-08-22T07:57:49.456Z,12.98
2022-08-22T08:00:19.871Z,9.80
2022-08-22T08:02:58.742Z,10.43
2022-08-22T08:05:29.497Z,13.63
2022-08-22T08:07:57.089Z,10.45
2022-08-22T08:10:31.868Z,14.00
2022-08-22T08:13:03.808Z,12.85
2022-08-22T08:15:33.083Z,8.93
2022-08-22T08:18:05.602Z,10.80
2022-08-22T08:20:35.664Z,10.20
2022-08-22T08:23:04.603Z,8.80
2022-08-22T08:25:37.161Z,11.35
2022-08-22T08:28:23.951Z,8.77
2022-08-22T08:30:59.718Z,10.20
2022-08-22T08:33:33.564Z,7.50
2022-08-22T08:36:33.472Z,7.57
2022-08-22T08:39:14.086Z,11.93
2022-08-22T08:42:15.358Z,9.10
2022-08-22T08:44:48.672Z,7.38
2022-08-22T08:47:39.888Z,11.88
2022-08-22T08:50:19.741Z,10.00
2022-08-22T08:53:17.630Z,8.20
2022-08-22T08:56:07.193Z,7.75
2022-08-22T08:58:52.725Z,8.80
2022-08-22T09:01:40.788Z,5.55
2022-08-22T09:04:15.227Z,7.95
2022-08-22T09:07:18.824Z,8.30
2022-08-22T09:10:22.181Z,10.27
2022-08-22T09:13:23.069Z,8.77
2022-08-22T09:16:10.863Z,9.27
2022-08-22T09:18:37.536Z,7.78
2022-08-22T09:21:36.236Z,11.05
2022-08-22T09:24:10.829Z,12.90
2022-08-22T09:27:08.460Z,9.55
2022-08-22T09:29:51.501Z,7.82
2022-08-22T09:32:28.756Z,7.32
2022-08-22T09:35:07.449Z,5.53
2022-08-22T09:37:46.678Z,6.65
2022-08-22T09:43:21.185Z,12.48
2022-08-22T09:46:22.543Z,7.88
2022-08-22T09:49:18.054Z,9.02
2022-08-22T09:51:55.285Z,6.53
2022-08-22T09:54:53.913Z,8.25
2022-08-22T09:57:52.490Z,13.80
2022-08-22T10:00:30.016Z,7.28
2022-08-22T10:03:28.671Z,8.15
2022-08-22T10:06:13.358Z,5.38
2022-08-22T10:09:31.447Z,4.90
2022-08-22T10:12:15.261Z,7.80
2022-08-22T10:15:16.774Z,6.15
2022-08-22T10:18:06.286Z,6.53
2022-08-22T10:20:48.986Z,5.90
2022-08-22T10:23:29.727Z,4.80
2022-08-22T10:26:25.913Z,4.32
2022-08-22T10:29:02.742Z,3.92
